createdAt,value
2018-03-26T00:01:30.710Z,3.08
2018-03-26T00:04:36.452Z,3.04
2018-03-26T00:07:40.372Z,3.02
2018-03-26T00:10:46.793Z,3.00
2018-03-26T00:13:53.184Z,2.89
2018-03-26T00:16:56.752Z,2.87
2018-03-26T00:20:04.771Z,2.88
2018-03-26T00:23:08.530Z,2.94
2018-03-26T00:26:14.252Z,2.95
2018-03-26T00:29:17.719Z,2.88
2018-03-26T00:32:23.380Z,2.83
2018-03-26T00:35:27.257Z,2.68
2018-03-26T00:38:30.809Z,2.66
2018-03-26T00:41:35.508Z,2.59
2018-03-26T00:44:40.667Z,2.62
2018-03-26T00:47:44.578Z,2.58
2018-03-26T00:50:51.427Z,2.61
2018-03-26T00:53:54.824Z,2.55
2018-03-26T00:56:59.901Z,2.54
2018-03-26T01:00:05.944Z,2.44
2018-03-26T01:03:11.502Z,2.30
2018-03-26T01:06:14.887Z,2.28
2018-03-26T01:09:20.380Z,2.28
2018-03-26T01:12:24.240Z,2.25
2018-03-26T01:15:28.959Z,2.21
2018-03-26T01:18:33.300Z,2.22
2018-03-26T01:21:36.784Z,2.26
2018-03-26T01:24:40.224Z,2.28
2018-03-26T01:27:43.808Z,2.22
2018-03-26T01:30:47.260Z,2.23
2018-03-26T01:33:51.363Z,2.22
2018-03-26T01:36:58.001Z,2.18
2018-03-26T01:40:02.712Z,2.14
2018-03-26T01:43:09.285Z,2.14
2018-03-26T01:46:13.899Z,2.15
2018-03-26T01:49:17.458Z,2.12
2018-03-26T01:52:22.501Z,2.11
2018-03-26T01:55:27.651Z,2.12
2018-03-26T01:58:32.752Z,2.15
2018-03-26T02:01:38.078Z,2.15
2018-03-26T02:04:41.704Z,2.14
2018-03-26T02:07:45.513Z,2.09
2018-03-26T02:10:50.564Z,2.12
2018-03-26T02:13:54.662Z,2.19
2018-03-26T02:17:02.197Z,2.20
2018-03-26T02:20:06.675Z,2.21
2018-03-26T02:23:12.982Z,2.22
2018-03-26T02:26:18.532Z,2.15
2018-03-26T02:29:25.728Z,2.07
2018-03-26T02:32:30.154Z,2.00
2018-03-26T02:35:35.687Z,2.00
2018-03-26T02:38:40.452Z,1.95
2018-03-26T02:41:46.481Z,1.91
2018-03-26T02:44:53.743Z,1.92
2018-03-26T02:47:57.876Z,1.94
2018-03-26T02:51:03.298Z,1.96
2018-03-26T02:54:11.061Z,1.97
2018-03-26T02:57:14.532Z,1.97
2018-03-26T03:00:22.228Z,1.95
2018-03-26T03:03:28.744Z,1.92
2018-03-26T04:55:02.428Z,2.74
2018-03-26T04:58:05.755Z,2.76
2018-03-26T05:01:09.108Z,2.80
2018-03-26T05:04:12.673Z,2.89
2018-03-26T05:07:16.128Z,2.87
2018-03-26T05:10:19.478Z,2.91
2018-03-26T05:13:22.904Z,3.00
2018-03-26T05:16:26.326Z,2.98
2018-03-26T05:19:29.725Z,2.95
2018-03-26T05:22:33.072Z,2.87
2018-03-26T05:25:36.417Z,2.84
2018-03-26T05:28:39.753Z,2.88
2018-03-26T05:31:43.741Z,2.91
2018-03-26T05:34:47.724Z,2.89
2018-03-26T05:37:51.079Z,2.88
2018-03-26T05:40:54.432Z,2.84
2018-03-26T05:43:57.778Z,2.90
2018-03-26T05:47:01.791Z,2.91
2018-03-26T05:50:05.207Z,2.97
2018-03-26T05:53:09.292Z,3.00
2018-03-26T05:56:12.645Z,2.92
2018-03-26T05:59:16.033Z,2.96
2018-03-26T06:02:19.433Z,3.01
2018-03-26T06:05:22.803Z,3.02
2018-03-26T06:08:26.145Z,3.03
2018-03-26T06:11:29.569Z,3.08
2018-03-26T06:14:32.943Z,3.13
2018-03-26T06:17:36.389Z,3.13
2018-03-26T06:20:39.786Z,3.19
2018-03-26T06:23:43.213Z,3.15
2018-03-26T06:26:47.906Z,3.15
2018-03-26T06:29:51.235Z,3.15
2018-03-26T06:32:54.600Z,3.21
2018-03-26T06:35:58.117Z,3.33
2018-03-26T06:39:01.461Z,3.31
2018-03-26T06:42:05.548Z,3.32
2018-03-26T06:45:08.945Z,3.33
2018-03-26T06:48:12.295Z,3.29
2018-03-26T06:51:15.647Z,3.31
2018-03-26T06:54:18.964Z,3.33
2018-03-26T06:57:22.306Z,3.39
2018-03-26T07:00:25.651Z,3.45
2018-03-26T07:03:28.983Z,3.49
2018-03-26T07:06:32.295Z,3.61
2018-03-26T07:09:35.638Z,3.72
2018-03-26T07:12:39.016Z,3.81
2018-03-26T07:15:42.339Z,3.90
2018-03-26T07:18:45.699Z,3.98
2018-03-26T07:21:49.012Z,4.06
2018-03-26T07:24:52.348Z,4.13
2018-03-26T07:27:55.688Z,4.19
2018-03-26T07:30:59.765Z,4.24
2018-03-26T07:34:03.096Z,4.26
2018-03-26T07:37:06.475Z,4.30
2018-03-26T07:40:09.798Z,4.31
2018-03-26T07:43:13.123Z,4.33
2018-03-26T07:46:16.451Z,4.38
2018-03-26T07:49:19.785Z,4.43
2018-03-26T07:52:23.128Z,4.53
2018-03-26T07:55:26.453Z,4.63
2018-03-26T07:58:29.847Z,4.69
2018-03-26T08:01:33.184Z,4.74
2018-03-26T08:04:36.518Z,4.82
2018-03-26T08:07:39.828Z,4.81
2018-03-26T08:10:43.190Z,4.78
2018-03-26T08:13:46.509Z,4.84
2018-03-26T08:16:49.841Z,4.95
2018-03-26T08:19:53.152Z,4.94
2018-03-26T08:22:56.478Z,4.97
2018-03-26T08:25:59.799Z,4.95
2018-03-26T08:29:03.134Z,5.00
2018-03-26T08:32:06.463Z,5.02
2018-03-26T08:35:09.781Z,5.09
2018-03-26T08:38:13.112Z,5.14
2018-03-26T08:41:16.420Z,5.17
2018-03-26T08:44:19.749Z,5.27
2018-03-26T08:47:23.059Z,5.30
2018-03-26T08:50:26.386Z,5.37
2018-03-26T08:53:29.717Z,5.45
2018-03-26T08:56:33.042Z,5.57
2018-03-26T08:59:36.351Z,5.64
2018-03-26T09:02:39.676Z,5.59
2018-03-26T09:05:43.029Z,5.57
2018-03-26T09:08:46.316Z,5.61
2018-03-26T09:11:49.627Z,5.73
2018-03-26T09:14:53.048Z,5.78
2018-03-26T09:17:56.582Z,5.80
2018-03-26T09:20:59.907Z,5.78
2018-03-26T09:24:04.000Z,5.78
2018-03-26T09:27:07.299Z,5.83
2018-03-26T09:30:11.397Z,5.89
2018-03-26T09:33:14.710Z,6.01
2018-03-26T09:36:18.041Z,6.14
2018-03-26T09:39:21.358Z,6.24
2018-03-26T09:42:24.696Z,6.24
2018-03-26T09:45:28.024Z,6.15
2018-03-26T09:48:31.342Z,6.09
2018-03-26T09:51:34.642Z,6.08
2018-03-26T09:54:37.972Z,6.07
2018-03-26T09:57:41.282Z,6.09
2018-03-26T10:00:49.442Z,6.15
2018-03-26T10:03:52.711Z,6.19
2018-03-26T10:06:56.032Z,6.12
2018-03-26T10:09:59.391Z,6.05
2018-03-26T10:13:03.486Z,5.98
2018-03-26T10:16:06.829Z,5.98
2018-03-26T10:19:10.183Z,5.96
2018-03-26T10:22:13.491Z,5.93
2018-03-26T10:25:16.849Z,6.00
2018-03-26T10:28:20.994Z,6.15
2018-03-26T10:31:24.317Z,6.26
2018-03-26T10:34:28.446Z,6.35
2018-03-26T10:37:31.775Z,6.42
2018-03-26T10:40:35.074Z,6.57
2018-03-26T10:43:38.394Z,6.86
2018-03-26T10:46:41.730Z,6.97
2018-03-26T10:49:45.374Z,7.01
2018-03-26T10:52:48.721Z,6.92
2018-03-26T10:55:52.074Z,6.81
2018-03-26T10:58:55.628Z,6.81
2018-03-26T11:01:58.944Z,6.79
2018-03-26T11:05:02.270Z,6.73
2018-03-26T11:08:05.584Z,6.72
2018-03-26T11:11:08.913Z,6.75
2018-03-26T11:14:12.214Z,6.76
2018-03-26T11:17:15.538Z,6.84
2018-03-26T11:20:18.847Z,6.95
2018-03-26T11:23:22.173Z,7.05
2018-03-26T11:26:25.507Z,7.10
2018-03-26T11:29:28.807Z,7.18
2018-03-26T11:32:32.131Z,7.07
2018-03-26T11:35:35.436Z,7.05
2018-03-26T11:38:38.763Z,7.12
2018-03-26T11:41:42.862Z,7.19
2018-03-26T11:44:46.175Z,7.32
2018-03-26T11:47:50.252Z,7.43
2018-03-26T11:50:53.579Z,7.51
2018-03-26T11:53:57.658Z,7.50
2018-03-26T11:57:00.977Z,7.47
2018-03-26T12:00:04.283Z,7.39
2018-03-26T12:03:07.620Z,7.35
2018-03-26T12:06:10.922Z,7.34
2018-03-26T12:09:14.240Z,7.50
2018-03-26T12:12:17.542Z,7.46
2018-03-26T12:15:20.872Z,7.47
2018-03-26T12:18:24.987Z,7.42
2018-03-26T12:21:29.065Z,7.43
2018-03-26T12:24:49.858Z,7.45
2018-03-26T12:28:10.727Z,7.47
2018-03-26T12:31:14.820Z,7.38
2018-03-26T12:34:35.590Z,7.33
2018-03-26T12:37:39.747Z,7.35
2018-03-26T12:40:57.623Z,7.30
2018-03-26T12:44:00.959Z,7.31
2018-03-26T12:47:04.286Z,7.33
2018-03-26T12:50:08.387Z,7.33
2018-03-26T12:53:11.715Z,7.39
2018-03-26T12:56:15.055Z,7.34
2018-03-26T12:59:18.367Z,7.18
2018-03-26T13:02:36.549Z,7.16
2018-03-26T13:05:39.917Z,7.09
2018-03-26T13:08:43.255Z,7.18
2018-03-26T13:11:46.598Z,7.26
2018-03-26T13:14:49.937Z,7.33
2018-03-26T13:17:53.259Z,7.39
2018-03-26T13:20:56.587Z,7.52
2018-03-26T13:23:59.932Z,7.62
2018-03-26T13:27:03.600Z,7.71
2018-03-26T13:30:06.948Z,7.75
2018-03-26T13:33:10.251Z,7.82
2018-03-26T13:36:13.583Z,7.87
2018-03-26T13:39:16.891Z,7.99
2018-03-26T13:42:20.228Z,8.07
2018-03-26T13:45:23.539Z,8.23
2018-03-26T13:48:26.857Z,8.33
2018-03-26T13:51:30.154Z,8.39
2018-03-26T13:54:33.483Z,8.38
2018-03-26T13:57:36.787Z,8.25
2018-03-26T14:00:40.868Z,8.27
2018-03-26T14:03:44.207Z,8.29
2018-03-26T14:06:48.263Z,8.31
2018-03-26T14:10:09.353Z,8.28
2018-03-26T14:13:30.287Z,8.20
2018-03-26T14:16:51.231Z,8.16
2018-03-26T14:19:54.538Z,8.17
2018-03-26T14:22:58.630Z,8.07
2018-03-26T14:26:01.955Z,8.09
2018-03-26T14:29:06.058Z,8.13
2018-03-26T14:32:09.379Z,8.16
2018-03-26T14:35:48.174Z,8.29
2018-03-26T14:38:51.491Z,8.26
2018-03-26T14:41:55.687Z,8.27
2018-03-26T14:44:58.991Z,8.25
2018-03-26T14:48:02.328Z,8.29
2018-03-26T14:51:05.658Z,8.34
2018-03-26T14:54:08.955Z,8.34
2018-03-26T14:57:12.275Z,8.40
2018-03-26T15:00:16.844Z,8.48
2018-03-26T15:03:20.155Z,8.51
2018-03-26T15:06:23.471Z,8.55
2018-03-26T15:09:26.786Z,8.48
2018-03-26T15:12:30.094Z,8.26
2018-03-26T15:15:33.409Z,8.13
2018-03-26T15:18:37.470Z,8.12
2018-03-26T15:21:40.787Z,8.15
2018-03-26T15:24:44.103Z,8.17
2018-03-26T15:27:48.183Z,8.18
2018-03-26T15:30:51.487Z,8.14
2018-03-26T15:33:54.823Z,8.06
2018-03-26T15:36:58.882Z,7.90
2018-03-26T15:40:02.197Z,7.80
2018-03-26T15:43:05.489Z,7.76
2018-03-26T15:46:08.794Z,7.72
2018-03-26T15:49:12.094Z,7.62
2018-03-26T15:52:15.402Z,7.53
2018-03-26T15:55:19.474Z,7.51
2018-03-26T15:58:22.792Z,7.53
2018-03-26T16:01:26.086Z,7.39
2018-03-26T16:04:29.403Z,7.34
2018-03-26T16:07:32.699Z,7.28
2018-03-26T16:10:36.007Z,7.22
2018-03-26T16:13:40.077Z,7.23
2018-03-26T16:16:43.387Z,7.25
2018-03-26T16:19:46.699Z,7.22
2018-03-26T16:22:49.995Z,7.17
2018-03-26T16:25:53.336Z,7.19
2018-03-26T16:28:56.642Z,7.16
2018-03-26T16:31:59.953Z,7.16
2018-03-26T16:35:03.420Z,7.10
2018-03-26T16:38:06.737Z,7.05
2018-03-26T16:41:10.039Z,6.99
2018-03-26T16:44:13.359Z,6.95
2018-03-26T16:47:16.694Z,6.84
2018-03-26T16:50:19.994Z,6.83
2018-03-26T16:53:23.307Z,6.79
2018-03-26T16:56:26.614Z,6.71
2018-03-26T16:59:29.929Z,6.65
2018-03-26T17:02:33.230Z,6.58
2018-03-26T17:05:36.550Z,6.57
2018-03-26T17:08:39.879Z,6.53
2018-03-26T17:11:43.186Z,6.44
2018-03-26T17:14:46.503Z,6.30
2018-03-26T17:17:49.818Z,6.26
2018-03-26T17:20:53.143Z,6.20
2018-03-26T17:23:57.209Z,6.20
2018-03-26T17:27:00.527Z,6.21
2018-03-26T17:30:03.819Z,6.12
2018-03-26T17:33:07.152Z,6.09
2018-03-26T17:36:11.255Z,6.08
2018-03-26T17:39:15.315Z,6.00
2018-03-26T17:42:18.627Z,5.95
2018-03-26T17:45:22.042Z,5.88
2018-03-26T17:48:26.035Z,5.82
2018-03-26T17:51:29.359Z,5.80
2018-03-26T17:54:32.690Z,5.74
2018-03-26T17:57:35.994Z,5.68
2018-03-26T18:00:39.308Z,5.68
2018-03-26T18:03:42.642Z,5.64
2018-03-26T18:06:45.955Z,5.57
2018-03-26T18:09:50.048Z,5.60
2018-03-26T18:12:53.363Z,5.47
2018-03-26T18:15:56.731Z,5.46
2018-03-26T18:19:00.039Z,5.42
2018-03-26T18:22:03.348Z,5.39
2018-03-26T18:25:06.686Z,5.35
2018-03-26T18:28:10.006Z,5.30
2018-03-26T18:31:13.339Z,5.31
2018-03-26T18:34:16.644Z,5.32
2018-03-26T18:37:19.967Z,5.26
2018-03-26T18:40:23.338Z,5.25
2018-03-26T18:43:26.662Z,5.21
2018-03-26T18:46:30.005Z,5.24
2018-03-26T18:49:33.335Z,5.21
2018-03-26T18:52:37.435Z,5.11
2018-03-26T18:55:40.751Z,5.06
2018-03-26T18:58:44.079Z,5.07
2018-03-26T19:01:47.388Z,5.07
2018-03-26T19:04:50.731Z,5.15
2018-03-26T19:07:54.051Z,5.11
2018-03-26T19:10:57.379Z,5.06
2018-03-26T19:14:00.736Z,5.08
2018-03-26T19:17:04.846Z,5.04
2018-03-26T19:20:08.927Z,5.06
2018-03-26T19:23:12.269Z,5.05
2018-03-26T19:26:15.603Z,5.09
2018-03-26T19:29:18.943Z,5.12
2018-03-26T19:32:22.313Z,5.14
2018-03-26T19:35:25.651Z,5.14
2018-03-26T19:38:28.991Z,5.16
2018-03-26T19:41:32.325Z,5.16
2018-03-26T19:44:35.638Z,5.09
2018-03-26T19:47:38.980Z,5.04
2018-03-26T19:50:42.306Z,5.00
2018-03-26T19:53:45.619Z,4.99
2018-03-26T19:56:49.740Z,4.97
2018-03-26T19:59:53.823Z,4.98
2018-03-26T20:02:57.151Z,4.98
2018-03-26T20:06:00.496Z,5.01
2018-03-26T20:09:03.827Z,5.04
2018-03-26T20:12:07.125Z,5.04
2018-03-26T20:15:10.446Z,5.05
2018-03-26T20:18:14.535Z,5.07
2018-03-26T20:21:17.848Z,5.06
2018-03-26T20:24:21.951Z,5.05
2018-03-26T20:27:25.312Z,5.05
2018-03-26T20:30:28.590Z,5.06
2018-03-26T20:33:31.916Z,5.01
2018-03-26T20:36:35.227Z,5.00
2018-03-26T20:39:38.546Z,4.97
2018-03-26T20:42:41.851Z,4.92
2018-03-26T20:45:45.934Z,4.89
2018-03-26T20:48:49.255Z,4.86
2018-03-26T20:51:52.574Z,4.86
2018-03-26T20:54:55.899Z,4.80
2018-03-26T20:57:59.227Z,4.75
2018-03-26T21:01:02.530Z,4.73
2018-03-26T21:04:06.611Z,4.67
2018-03-26T21:07:09.967Z,4.64
2018-03-26T21:10:13.284Z,4.60
2018-03-26T21:13:16.619Z,4.57
2018-03-26T21:16:19.943Z,4.52
2018-03-26T21:19:23.275Z,4.48
2018-03-26T21:22:26.587Z,4.44
2018-03-26T21:25:29.914Z,4.35
2018-03-26T21:28:33.232Z,4.27
2018-03-26T21:31:36.562Z,4.26
2018-03-26T21:34:39.889Z,4.34
2018-03-26T21:37:43.237Z,4.35
2018-03-26T21:40:46.575Z,4.36
2018-03-26T21:43:49.921Z,4.39
2018-03-26T21:46:54.021Z,4.33
2018-03-26T21:49:57.384Z,4.37
2018-03-26T21:53:00.699Z,4.37
2018-03-26T21:56:04.037Z,4.36
2018-03-26T21:59:07.355Z,4.41
2018-03-26T22:02:10.688Z,4.41
2018-03-26T22:05:14.001Z,4.36
2018-03-26T22:08:17.332Z,4.36
2018-03-26T22:11:20.654Z,4.35
2018-03-26T22:14:23.970Z,4.31
2018-03-26T22:17:27.302Z,4.33
2018-03-26T22:20:30.619Z,4.29
2018-03-26T22:23:33.952Z,4.30
2018-03-26T22:26:37.279Z,4.34
2018-03-26T22:29:40.613Z,4.31
2018-03-26T22:32:43.962Z,4.34
2018-03-26T22:35:47.295Z,4.28
2018-03-26T22:38:50.632Z,4.24
2018-03-26T22:41:53.989Z,4.21
2018-03-26T22:44:57.306Z,4.24
2018-03-26T22:48:00.661Z,4.22
2018-03-26T22:51:04.741Z,4.17
2018-03-26T22:54:08.085Z,4.17
2018-03-26T22:57:11.439Z,4.19
2018-03-26T23:00:14.770Z,4.17
2018-03-26T23:03:18.864Z,4.14
2018-03-26T23:06:22.196Z,4.20
2018-03-26T23:09:25.558Z,4.16
2018-03-26T23:12:28.875Z,4.21
2018-03-26T23:15:32.211Z,4.18
2018-03-26T23:18:35.551Z,4.15
2018-03-26T23:21:38.890Z,4.07
2018-03-26T23:24:42.198Z,4.11
2018-03-26T23:27:45.531Z,4.09
2018-03-26T23:30:48.874Z,4.12
2018-03-26T23:33:52.227Z,4.14
2018-03-26T23:36:55.566Z,4.09
2018-03-26T23:39:58.999Z,4.06
2018-03-26T23:43:02.316Z,4.06
2018-03-26T23:46:05.652Z,4.01
2018-03-26T23:49:09.791Z,4.03
2018-03-26T23:52:13.129Z,4.07
2018-03-26T23:55:16.439Z,4.07
2018-03-26T23:58:19.781Z,4.07
